createdAt,value
2018-04-14T00:00:31.579Z,61.33
2018-04-14T00:02:59.714Z,61.33
2018-04-14T00:05:27.978Z,59.03
2018-04-14T00:07:56.397Z,59.30
2018-04-14T00:10:24.746Z,63.03
2018-04-14T00:12:53.118Z,59.53
2018-04-14T00:15:21.394Z,60.57
2018-04-14T00:17:49.508Z,62.00
2018-04-14T00:20:17.613Z,57.13
2018-04-14T00:22:45.898Z,55.63
2018-04-14T00:25:14.093Z,55.57
2018-04-14T00:27:42.460Z,54.33
2018-04-14T00:30:10.830Z,57.20
2018-04-14T00:32:39.107Z,50.93
2018-04-14T00:35:07.268Z,54.17
2018-04-14T00:37:35.364Z,51.03
2018-04-14T00:40:03.455Z,51.83
2018-04-14T00:42:31.571Z,51.90
2018-04-14T00:44:59.881Z,50.90
2018-04-14T00:47:27.985Z,53.87
2018-04-14T00:49:56.326Z,52.50
2018-04-14T00:52:24.441Z,54.37
2018-04-14T00:54:52.694Z,55.97
2018-04-14T00:57:20.837Z,54.00
2018-04-14T00:59:49.143Z,53.40
2018-04-14T01:02:17.239Z,53.43
2018-04-14T01:04:45.356Z,52.63
2018-04-14T01:07:13.752Z,52.03
2018-04-14T01:09:42.145Z,50.73
2018-04-14T01:12:10.380Z,52.27
2018-04-14T01:14:38.628Z,53.07
2018-04-14T01:17:06.921Z,54.17
2018-04-14T01:19:35.059Z,51.83
2018-04-14T01:22:03.265Z,55.20
2018-04-14T01:24:31.372Z,49.40
2018-04-14T01:26:59.487Z,49.27
2018-04-14T01:29:27.612Z,49.87
2018-04-14T01:31:56.043Z,50.00
2018-04-14T01:34:24.139Z,48.83
2018-04-14T01:36:52.443Z,47.73
2018-04-14T01:39:20.535Z,45.23
2018-04-14T01:41:48.638Z,47.97
2018-04-14T01:44:16.906Z,46.23
2018-04-14T01:46:45.000Z,46.60
2018-04-14T01:49:13.419Z,44.17
2018-04-14T01:51:41.706Z,45.13
2018-04-14T01:54:09.865Z,46.20
2018-04-14T01:56:38.249Z,47.37
2018-04-14T01:59:06.613Z,42.67
2018-04-14T02:01:35.018Z,45.67
2018-04-14T02:04:03.217Z,45.47
2018-04-14T02:06:31.346Z,44.00
2018-04-14T02:08:59.508Z,44.90
2018-04-14T02:11:27.612Z,43.27
2018-04-14T02:13:55.719Z,43.27
2018-04-14T02:16:24.034Z,43.20
2018-04-14T02:18:52.339Z,42.47
2018-04-14T02:21:20.453Z,41.00
2018-04-14T02:23:48.866Z,41.43
2018-04-14T02:26:16.978Z,42.07
2018-04-14T02:28:45.161Z,41.33
2018-04-14T02:31:13.414Z,41.60
2018-04-14T02:33:41.733Z,44.20
2018-04-14T02:36:09.901Z,40.43
2018-04-14T02:38:38.118Z,39.63
2018-04-14T02:41:06.310Z,40.03
2018-04-14T02:43:34.577Z,40.03
2018-04-14T02:46:02.764Z,38.73
2018-04-14T02:48:31.005Z,39.97
2018-04-14T02:50:59.256Z,39.93
2018-04-14T02:53:27.341Z,36.93
2018-04-14T02:55:55.638Z,38.50
2018-04-14T02:58:23.914Z,37.67
2018-04-14T03:00:52.066Z,36.70
2018-04-14T03:03:20.347Z,37.63
2018-04-14T03:05:48.459Z,36.93
2018-04-14T03:08:16.545Z,38.20
2018-04-14T03:10:44.658Z,37.87
2018-04-14T03:13:13.042Z,35.33
2018-04-14T03:15:41.321Z,37.60
2018-04-14T03:18:09.526Z,36.13
2018-04-14T03:20:37.895Z,37.63
2018-04-14T03:23:06.258Z,35.83
2018-04-14T03:25:34.428Z,37.80
2018-04-14T03:28:02.758Z,37.17
2018-04-14T03:30:31.093Z,36.60
2018-04-14T03:32:59.426Z,37.10
2018-04-14T03:35:27.592Z,37.17
2018-04-14T03:37:55.833Z,35.83
2018-04-14T03:40:23.943Z,39.27
2018-04-14T03:42:52.037Z,39.67
2018-04-14T03:45:20.320Z,40.83
2018-04-14T03:47:48.441Z,39.63
2018-04-14T03:50:16.577Z,39.43
2018-04-14T03:52:44.967Z,39.47
2018-04-14T03:55:13.316Z,41.07
2018-04-14T03:57:41.655Z,41.53
2018-04-14T04:00:10.041Z,40.80
2018-04-14T04:02:38.125Z,41.80
2018-04-14T04:05:06.515Z,40.83
2018-04-14T04:07:35.459Z,41.37
2018-04-14T04:10:03.601Z,40.70
2018-04-14T04:12:31.990Z,40.37
2018-04-14T04:15:00.085Z,40.90
2018-04-14T04:17:28.440Z,38.07
2018-04-14T04:20:08.428Z,40.23
2018-04-14T04:22:48.509Z,39.50
2018-04-14T04:28:15.225Z,39.10
2018-04-14T04:30:43.455Z,40.77
2018-04-14T04:33:11.598Z,40.00
2018-04-14T04:35:40.190Z,40.87
2018-04-14T04:38:08.299Z,41.23
2018-04-14T04:40:36.564Z,38.13
2018-04-14T04:43:05.353Z,41.20
2018-04-14T04:45:33.817Z,41.43
2018-04-14T04:48:02.131Z,41.53
2018-04-14T04:50:30.329Z,41.87
2018-04-14T04:52:58.650Z,39.47
2018-04-14T04:55:27.035Z,42.57
2018-04-14T04:57:55.422Z,41.43
2018-04-14T05:00:23.600Z,40.47
2018-04-14T05:02:51.789Z,40.63
2018-04-14T05:05:20.201Z,41.40
2018-04-14T05:07:48.330Z,42.43
2018-04-14T05:10:16.603Z,42.03
2018-04-14T05:12:44.778Z,42.03
2018-04-14T05:15:12.980Z,43.50
2018-04-14T05:17:41.140Z,40.50
2018-04-14T05:20:09.260Z,43.80
2018-04-14T05:22:37.708Z,42.27
2018-04-14T05:25:06.028Z,42.63
2018-04-14T05:27:34.540Z,43.10
2018-04-14T05:30:02.890Z,45.40
2018-04-14T05:32:31.209Z,46.33
2018-04-14T05:34:59.605Z,48.73
2018-04-14T05:37:27.964Z,45.27
2018-04-14T05:39:56.214Z,44.70
2018-04-14T05:42:24.440Z,48.53
2018-04-14T05:44:52.991Z,43.20
2018-04-14T05:47:21.136Z,47.07
2018-04-14T05:49:49.313Z,45.03
2018-04-14T05:52:17.775Z,45.90
2018-04-14T05:54:45.957Z,45.87
2018-04-14T05:57:14.464Z,47.70
2018-04-14T05:59:42.774Z,46.00
2018-04-14T06:02:11.766Z,47.07
2018-04-14T06:04:40.155Z,45.50
2018-04-14T06:07:08.321Z,45.47
2018-04-14T06:09:36.571Z,45.87
2018-04-14T06:12:05.017Z,43.50
2018-04-14T06:14:33.160Z,44.03
2018-04-14T06:17:01.320Z,45.43
2018-04-14T06:19:29.647Z,45.97
2018-04-14T06:21:57.946Z,47.60
2018-04-14T06:24:26.316Z,42.40
2018-04-14T06:26:54.666Z,44.63
2018-04-14T06:29:22.990Z,42.73
2018-04-14T06:31:51.471Z,45.87
2018-04-14T06:34:19.768Z,42.20
2018-04-14T06:36:48.018Z,41.30
2018-04-14T06:39:16.257Z,40.60
2018-04-14T06:41:44.592Z,39.73
2018-04-14T06:44:13.029Z,40.53
2018-04-14T06:46:41.633Z,42.03
2018-04-14T06:49:09.836Z,39.13
2018-04-14T06:51:38.111Z,43.93
2018-04-14T06:54:06.456Z,39.80
2018-04-14T06:56:34.789Z,40.20
2018-04-14T06:59:03.363Z,36.87
2018-04-14T07:01:31.699Z,38.70
2018-04-14T07:04:00.160Z,40.10
2018-04-14T07:06:28.475Z,39.17
2018-04-14T07:08:56.594Z,39.93
2018-04-14T07:11:25.290Z,41.40
2018-04-14T07:13:53.985Z,37.70
2018-04-14T07:16:22.532Z,39.10
2018-04-14T07:18:50.654Z,39.87
2018-04-14T07:21:19.014Z,42.93
2018-04-14T07:23:47.743Z,43.97
2018-04-14T07:26:16.032Z,41.70
2018-04-14T07:28:44.530Z,41.93
2018-04-14T07:31:12.956Z,43.00
2018-04-14T07:33:41.355Z,42.83
2018-04-14T07:36:09.751Z,44.30
2018-04-14T07:38:37.970Z,44.97
2018-04-14T07:41:06.418Z,41.30
2018-04-14T07:43:34.690Z,43.13
2018-04-14T07:46:03.032Z,43.93
2018-04-14T07:48:31.478Z,45.80
2018-04-14T07:51:00.262Z,42.93
2018-04-14T07:53:28.431Z,44.03
2018-04-14T07:55:57.146Z,46.00
2018-04-14T07:58:25.445Z,43.67
2018-04-14T08:00:53.607Z,44.90
2018-04-14T08:03:21.840Z,44.47
2018-04-14T08:05:50.270Z,42.80
2018-04-14T08:08:18.358Z,42.63
2018-04-14T08:10:46.761Z,44.57
2018-04-14T08:13:15.198Z,42.57
2018-04-14T08:15:43.344Z,42.03
2018-04-14T08:18:11.504Z,45.97
2018-04-14T08:20:39.734Z,43.77
2018-04-14T08:23:08.135Z,40.63
2018-04-14T08:25:36.269Z,40.93
2018-04-14T08:28:04.786Z,42.43
2018-04-14T08:30:33.242Z,41.27
2018-04-14T08:33:01.625Z,39.60
2018-04-14T08:35:30.202Z,38.00
2018-04-14T08:37:58.550Z,36.77
2018-04-14T08:40:27.127Z,38.73
2018-04-14T08:42:55.749Z,38.93
2018-04-14T08:45:24.205Z,39.83
2018-04-14T08:47:52.441Z,41.77
2018-04-14T08:50:20.664Z,36.23
2018-04-14T08:52:48.761Z,39.00
2018-04-14T08:55:17.135Z,38.47
2018-04-14T08:57:45.646Z,37.80
2018-04-14T09:00:13.802Z,38.13
2018-04-14T09:02:42.187Z,37.33
2018-04-14T09:05:10.637Z,39.57
2018-04-14T09:07:38.762Z,38.27
2018-04-14T09:10:07.293Z,39.53
2018-04-14T09:12:35.464Z,40.00
2018-04-14T09:15:05.395Z,39.30
2018-04-14T09:17:33.593Z,39.03
2018-04-14T09:20:01.752Z,38.20
2018-04-14T09:22:30.587Z,39.17
2018-04-14T09:24:58.833Z,37.13
2018-04-14T09:27:27.195Z,41.10
2018-04-14T09:29:55.611Z,38.50
2018-04-14T09:32:23.851Z,36.80
2018-04-14T09:34:53.120Z,39.30
2018-04-14T09:37:21.297Z,41.07
2018-04-14T09:39:50.506Z,40.13
2018-04-14T09:42:18.641Z,35.33
2018-04-14T09:44:47.088Z,37.70
2018-04-14T09:47:15.731Z,35.50
2018-04-14T09:49:44.043Z,35.17
2018-04-14T09:52:12.390Z,33.80
2018-04-14T09:54:40.626Z,34.87
2018-04-14T09:57:08.735Z,32.33
2018-04-14T09:59:37.046Z,37.87
2018-04-14T10:02:05.371Z,37.87
2018-04-14T10:04:33.485Z,34.67
2018-04-14T10:07:01.778Z,32.90
2018-04-14T10:09:30.406Z,35.63
2018-04-14T10:11:59.210Z,34.20
2018-04-14T10:14:27.402Z,33.60
2018-04-14T10:16:55.582Z,31.67
2018-04-14T10:19:23.944Z,32.20
2018-04-14T10:21:52.194Z,37.57
2018-04-14T10:24:20.787Z,35.33
2018-04-14T10:26:49.181Z,34.57
2018-04-14T10:29:17.790Z,33.93
2018-04-14T10:31:46.536Z,34.20
2018-04-14T10:34:15.375Z,34.00
2018-04-14T10:36:43.548Z,34.97
2018-04-14T10:39:11.922Z,35.73
2018-04-14T10:41:40.557Z,34.60
2018-04-14T10:44:08.720Z,32.33
2018-04-14T10:46:36.938Z,36.47
2018-04-14T10:49:05.484Z,37.03
2018-04-14T10:51:33.674Z,32.43
2018-04-14T10:54:01.901Z,34.27
2018-04-14T10:56:30.524Z,36.97
2018-04-14T10:58:58.637Z,34.33
2018-04-14T11:01:26.777Z,35.67
2018-04-14T11:03:55.396Z,30.60
2018-04-14T11:06:23.546Z,33.20
2018-04-14T11:08:51.645Z,33.17
2018-04-14T11:11:20.235Z,33.00
2018-04-14T11:13:48.461Z,37.50
2018-04-14T11:16:16.794Z,34.33
2018-04-14T11:18:45.308Z,33.60
2018-04-14T11:21:13.431Z,31.93
2018-04-14T11:23:42.222Z,30.50
2018-04-14T11:26:10.826Z,32.67
2018-04-14T11:28:38.950Z,32.30
2018-04-14T11:31:07.305Z,33.33
2018-04-14T11:33:35.681Z,32.33
2018-04-14T11:36:03.981Z,30.63
2018-04-14T11:38:32.439Z,30.97
2018-04-14T11:41:00.829Z,30.90
2018-04-14T11:43:29.169Z,32.13
2018-04-14T11:45:57.765Z,32.93
2018-04-14T11:48:25.884Z,32.53
2018-04-14T11:50:54.303Z,31.40
2018-04-14T11:53:22.915Z,30.63
2018-04-14T11:55:51.648Z,31.33
2018-04-14T11:58:19.932Z,33.17
2018-04-14T12:00:48.144Z,29.73
2018-04-14T12:03:16.535Z,30.20
2018-04-14T12:05:44.914Z,30.23
2018-04-14T12:08:13.152Z,30.87
2018-04-14T12:10:41.347Z,30.07
2018-04-14T12:13:09.777Z,29.07
2018-04-14T12:15:37.914Z,29.43
2018-04-14T12:18:06.429Z,29.93
2018-04-14T12:20:34.889Z,30.80
2018-04-14T12:23:03.283Z,29.23
2018-04-14T12:25:31.459Z,29.63
2018-04-14T12:27:59.752Z,31.03
2018-04-14T12:30:28.411Z,29.43
2018-04-14T12:32:56.611Z,30.50
2018-04-14T12:35:25.040Z,29.23
2018-04-14T12:37:59.978Z,31.67
2018-04-14T12:40:28.363Z,30.00
2018-04-14T12:42:56.688Z,28.17
2018-04-14T12:45:25.318Z,29.57
2018-04-14T12:47:53.586Z,29.87
2018-04-14T12:50:22.190Z,30.13
2018-04-14T12:52:50.852Z,29.63
2018-04-14T12:55:19.673Z,29.07
2018-04-14T12:57:48.280Z,30.27
2018-04-14T13:00:16.755Z,29.13
2018-04-14T13:02:45.470Z,29.13
2018-04-14T13:05:13.772Z,27.17
2018-04-14T13:07:41.992Z,30.63
2018-04-14T13:10:10.625Z,28.87
2018-04-14T13:12:39.262Z,32.20
2018-04-14T13:15:07.664Z,32.53
2018-04-14T13:17:35.756Z,29.80
2018-04-14T13:20:03.930Z,30.27
2018-04-14T13:22:32.308Z,30.07
2018-04-14T13:25:00.790Z,30.03
2018-04-14T13:27:29.251Z,29.10
2018-04-14T13:29:57.420Z,30.97
2018-04-14T13:32:25.653Z,30.83
2018-04-14T13:34:58.119Z,30.43
2018-04-14T13:37:26.430Z,29.80
2018-04-14T13:39:54.738Z,33.07
2018-04-14T13:42:23.327Z,28.93
2018-04-14T13:44:51.467Z,30.83
2018-04-14T13:47:19.821Z,29.53
2018-04-14T13:49:48.070Z,30.80
2018-04-14T13:52:16.180Z,30.17
2018-04-14T13:54:44.673Z,29.70
2018-04-14T13:57:13.188Z,32.30
2018-04-14T13:59:41.562Z,34.23
2018-04-14T14:02:09.798Z,32.27
2018-04-14T14:04:38.464Z,30.50
2018-04-14T14:07:06.843Z,30.67
2018-04-14T14:09:35.341Z,29.07
2018-04-14T14:12:03.825Z,31.40
2018-04-14T14:14:32.339Z,28.93
2018-04-14T14:17:00.818Z,31.57
2018-04-14T14:19:29.164Z,31.53
2018-04-14T14:21:57.428Z,31.03
2018-04-14T14:24:25.673Z,31.20
2018-04-14T14:26:54.719Z,30.50
2018-04-14T14:29:22.957Z,31.07
2018-04-14T14:31:51.376Z,30.73
2018-04-14T14:34:19.923Z,29.50
2018-04-14T14:36:48.193Z,31.33
2018-04-14T14:39:16.301Z,31.90
2018-04-14T14:41:44.408Z,28.17
2018-04-14T14:44:12.942Z,28.33
2018-04-14T14:46:41.130Z,25.80
2018-04-14T14:49:09.399Z,26.37
2018-04-14T14:51:37.785Z,28.07
2018-04-14T14:54:05.934Z,28.90
2018-04-14T14:56:34.283Z,27.97
2018-04-14T14:59:02.437Z,29.50
2018-04-14T15:01:31.056Z,28.43
2018-04-14T15:03:59.162Z,28.50
2018-04-14T15:06:27.356Z,27.53
2018-04-14T15:08:55.998Z,28.13
2018-04-14T15:11:24.293Z,29.90
2018-04-14T15:13:52.417Z,29.57
2018-04-14T15:16:20.714Z,28.60
2018-04-14T15:18:48.904Z,29.07
2018-04-14T15:21:17.356Z,29.70
2018-04-14T15:23:45.740Z,28.47
2018-04-14T15:26:14.125Z,30.63
2018-04-14T15:28:42.429Z,30.53
2018-04-14T15:31:10.926Z,28.93
2018-04-14T15:33:38.987Z,29.67
2018-04-14T15:36:07.351Z,32.07
2018-04-14T15:38:35.598Z,28.37
2018-04-14T15:41:03.988Z,33.13
2018-04-14T15:43:32.457Z,31.03
2018-04-14T15:46:00.641Z,28.77
2018-04-14T15:48:28.997Z,29.77
2018-04-14T15:50:57.370Z,28.63
2018-04-14T15:53:25.635Z,31.17
2018-04-14T15:55:54.283Z,40.33
2018-04-14T15:58:22.625Z,30.87
2018-04-14T16:00:50.805Z,33.87
2018-04-14T16:03:18.913Z,33.13
2018-04-14T16:05:47.301Z,30.37
2018-04-14T16:08:15.602Z,31.67
2018-04-14T16:10:43.950Z,30.83
2018-04-14T16:13:12.383Z,34.43
2018-04-14T16:15:40.776Z,35.70
2018-04-14T16:18:08.907Z,34.47
2018-04-14T16:20:37.240Z,35.90
2018-04-14T16:23:05.560Z,30.10
2018-04-14T16:25:34.207Z,31.50
2018-04-14T16:28:02.875Z,32.13
2018-04-14T16:30:31.439Z,31.13
2018-04-14T16:32:59.759Z,32.00
2018-04-14T16:35:28.259Z,37.13
2018-04-14T16:37:56.388Z,34.83
2018-04-14T16:40:24.901Z,34.67
2018-04-14T16:42:53.297Z,34.67
2018-04-14T16:45:21.661Z,36.43
2018-04-14T16:47:50.117Z,40.53
2018-04-14T16:53:04.090Z,35.17
2018-04-14T16:55:32.496Z,33.10
2018-04-14T16:58:01.469Z,32.70
2018-04-14T17:00:29.740Z,31.07
2018-04-14T17:02:58.057Z,32.57
2018-04-14T17:05:26.280Z,33.13
2018-04-14T17:07:54.410Z,32.63
2018-04-14T17:10:23.174Z,33.63
2018-04-14T17:12:51.295Z,32.70
2018-04-14T17:15:19.675Z,32.30
2018-04-14T17:17:48.198Z,30.53
2018-04-14T17:20:16.347Z,29.67
2018-04-14T17:22:44.789Z,33.30
2018-04-14T17:25:13.296Z,32.80
2018-04-14T17:27:41.777Z,33.13
2018-04-14T17:30:10.177Z,32.27
2018-04-14T17:32:38.372Z,39.07
2018-04-14T17:35:06.537Z,33.47
2018-04-14T17:37:35.060Z,34.40
2018-04-14T17:40:03.249Z,33.63
2018-04-14T17:42:31.384Z,31.83
2018-04-14T17:44:59.902Z,30.83
2018-04-14T17:47:28.291Z,32.53
2018-04-14T17:49:56.640Z,31.90
2018-04-14T17:52:25.026Z,35.47
2018-04-14T17:54:53.258Z,32.30
2018-04-14T17:57:21.493Z,32.23
2018-04-14T17:59:49.889Z,32.87
2018-04-14T18:02:18.072Z,32.43
2018-04-14T18:04:46.171Z,32.33
2018-04-14T18:07:14.302Z,33.63
2018-04-14T18:09:42.953Z,33.83
2018-04-14T18:12:11.055Z,33.03
2018-04-14T18:14:39.432Z,34.03
2018-04-14T18:17:08.123Z,34.53
2018-04-14T18:19:36.450Z,33.33
2018-04-14T18:22:04.654Z,35.40
2018-04-14T18:24:32.948Z,33.37
2018-04-14T18:27:01.060Z,30.53
2018-04-14T18:29:29.427Z,31.03
2018-04-14T18:31:57.784Z,32.57
2018-04-14T18:34:26.018Z,33.43
2018-04-14T18:36:54.126Z,33.93
2018-04-14T18:39:22.266Z,32.67
2018-04-14T18:41:50.690Z,34.23
2018-04-14T18:44:19.040Z,40.63
2018-04-14T18:46:47.125Z,40.17
2018-04-14T18:49:15.499Z,38.97
2018-04-14T18:51:43.561Z,40.20
2018-04-14T18:54:11.933Z,38.37
2018-04-14T18:56:40.089Z,39.30
2018-04-14T18:59:08.390Z,42.17
2018-04-14T19:01:36.777Z,42.00
2018-04-14T19:04:05.147Z,47.83
2018-04-14T19:06:33.516Z,47.80
2018-04-14T19:09:01.701Z,46.77
2018-04-14T19:11:29.833Z,44.50
2018-04-14T19:13:58.038Z,37.93
2018-04-14T19:16:26.325Z,37.27
2018-04-14T19:18:54.484Z,34.43
2018-04-14T19:21:22.827Z,34.00
2018-04-14T19:23:50.973Z,34.33
2018-04-14T19:26:19.215Z,35.60
2018-04-14T19:28:47.342Z,35.53
2018-04-14T19:31:15.474Z,37.00
2018-04-14T19:33:43.859Z,38.57
2018-04-14T19:36:12.179Z,37.53
2018-04-14T19:38:40.282Z,35.93
2018-04-14T19:41:08.581Z,35.27
2018-04-14T19:43:36.763Z,34.60
2018-04-14T19:46:04.864Z,33.37
2018-04-14T19:48:33.245Z,31.10
2018-04-14T19:51:01.633Z,34.93
2018-04-14T19:53:29.989Z,31.97
2018-04-14T19:55:58.410Z,33.17
2018-04-14T19:58:26.698Z,32.03
2018-04-14T20:00:54.986Z,33.03
2018-04-14T20:03:23.488Z,33.33
2018-04-14T20:05:51.755Z,34.27
2018-04-14T20:08:19.882Z,33.83
2018-04-14T20:10:47.999Z,32.67
2018-04-14T20:13:16.265Z,32.37
2018-04-14T20:15:44.333Z,33.97
2018-04-14T20:18:12.796Z,35.40
2018-04-14T20:20:40.952Z,34.53
2018-04-14T20:23:09.255Z,36.57
2018-04-14T20:25:37.331Z,31.93
2018-04-14T20:28:05.502Z,33.07
2018-04-14T20:30:33.658Z,34.97
2018-04-14T20:33:01.851Z,36.83
2018-04-14T20:35:30.213Z,35.10
2018-04-14T20:37:58.591Z,37.07
2018-04-14T20:40:26.910Z,35.40
2018-04-14T20:42:55.013Z,32.97
2018-04-14T20:45:23.405Z,36.23
2018-04-14T20:47:51.680Z,33.63
2018-04-14T20:50:19.822Z,33.17
2018-04-14T20:52:47.955Z,34.57
2018-04-14T20:55:16.022Z,36.03
2018-04-14T20:57:44.342Z,36.63
2018-04-14T21:00:12.476Z,34.03
2018-04-14T21:02:40.846Z,32.90
2018-04-14T21:05:09.164Z,35.63
2018-04-14T21:07:37.274Z,34.77
2018-04-14T21:10:05.559Z,33.70
2018-04-14T21:12:33.746Z,34.97
2018-04-14T21:15:02.076Z,34.40
2018-04-14T21:17:30.175Z,34.33
2018-04-14T21:19:58.473Z,36.37
2018-04-14T21:22:26.604Z,37.13
2018-04-14T21:24:54.921Z,36.53
2018-04-14T21:27:23.093Z,35.50
2018-04-14T21:29:51.415Z,35.43
2018-04-14T21:32:19.742Z,37.70
2018-04-14T21:34:47.930Z,33.63
2018-04-14T21:37:16.295Z,33.93
2018-04-14T21:39:44.582Z,33.23
2018-04-14T21:42:12.663Z,32.90
2018-04-14T21:44:40.756Z,34.73
2018-04-14T21:47:09.089Z,34.03
2018-04-14T21:49:37.194Z,35.13
2018-04-14T21:52:05.339Z,33.50
2018-04-14T21:54:33.502Z,34.70
2018-04-14T21:57:01.772Z,33.10
2018-04-14T21:59:29.864Z,34.10
2018-04-14T22:01:58.170Z,34.70
2018-04-14T22:04:26.503Z,33.83
2018-04-14T22:06:54.598Z,33.43
2018-04-14T22:09:22.755Z,32.07
2018-04-14T22:11:51.061Z,35.63
2018-04-14T22:14:30.905Z,34.40
2018-04-14T22:16:59.228Z,33.33
2018-04-14T22:19:28.889Z,36.10
2018-04-14T22:21:56.982Z,33.27
2018-04-14T22:24:25.509Z,33.57
2018-04-14T22:26:53.972Z,36.80
2018-04-14T22:29:22.101Z,35.97
2018-04-14T22:31:50.425Z,34.33
2018-04-14T22:34:18.553Z,35.13
2018-04-14T22:36:46.881Z,35.87
2018-04-14T22:39:15.249Z,34.63
2018-04-14T22:41:43.665Z,35.30
2018-04-14T22:44:12.032Z,33.90
2018-04-14T22:46:40.418Z,32.40
2018-04-14T22:49:08.498Z,34.97
2018-04-14T22:51:36.582Z,32.37
2018-04-14T22:54:04.902Z,32.37
2018-04-14T22:56:33.222Z,35.67
2018-04-14T22:59:01.294Z,35.70
2018-04-14T23:01:29.741Z,34.70
2018-04-14T23:03:57.848Z,34.67
2018-04-14T23:06:25.977Z,35.87
2018-04-14T23:08:54.063Z,37.07
2018-04-14T23:11:22.365Z,36.23
2018-04-14T23:13:50.642Z,38.20
2018-04-14T23:16:18.867Z,37.47
2018-04-14T23:18:47.100Z,36.57
2018-04-14T23:21:15.300Z,37.23
2018-04-14T23:23:43.502Z,37.03
2018-04-14T23:26:11.597Z,37.20
2018-04-14T23:28:39.745Z,34.63
2018-04-14T23:31:08.028Z,38.03
2018-04-14T23:33:36.124Z,38.20
2018-04-14T23:36:04.228Z,36.70
2018-04-14T23:38:32.337Z,36.87
2018-04-14T23:41:00.708Z,37.50
2018-04-14T23:43:28.793Z,35.77
2018-04-14T23:45:56.957Z,36.80
2018-04-14T23:48:25.142Z,35.73
2018-04-14T23:50:53.225Z,38.27
2018-04-14T23:53:21.343Z,37.07
2018-04-14T23:55:49.438Z,36.90
2018-04-14T23:58:17.857Z,37.57
